BHL weather

Bahía de los Ángeles Airport
Bahía de los Ángeles, Baja California, Mexico

Public forecast

Using degrees Celsius for public forecast. Weather courtesy of forecast.io.

Closest aviation weather report (METAR) to Bahía de los Ángeles Airport

Closest report is General Ignacio P. Garcia International Airport, 132.1 nm (244.7 km) E. Retrieved 2019/10/22 12:41 UTC (0 seconds ago):

MMHO 221241Z 00000KT 10SM SKC 16/06 A2998 RMK HZY

Closest aviation forecast (TAF) to Bahía de los Ángeles Airport

Closest forecast is General Ignacio P. Garcia International Airport, 132.1 nm (244.7 km) E. Retrieved 2019/10/22 06:27 UTC (6 hours ago):

TAF MMHO 220420Z 2206/2306 24005KT P6SM SKC FM221800 24010KT P6SM SKC FM230300 24005KT P6SM SKC